Rice Lake, WI

10:24 AM CDT on April 27, 2017 (GMT -0500)
Rice Lake Regional-Carl's

Weather History for KRPD - January, 2014

Change the Weather History Date:

Monday, January 27, 2014

  Actual Average Record
Temperature  
Mean Temperature -11 °F -  
Max Temperature -4 °F 22 °F 38 °F (2016)
Min Temperature -18 °F 6 °F -18 °F (2014)
Degree Days  
Heating Degree Days 76    
Moisture  
Dew Point -24 °F    
Average Humidity 59    
Maximum Humidity 70    
Minimum Humidity 51    
Precipitation  
Precipitation 0.00 in - - ()
Sea Level Pressure  
Sea Level Pressure 30.22 in    
Wind  
Wind Speed 11 mph (West)    
Max Wind Speed 18 mph    
Max Gust Speed 26 mph    
Visibility 10 miles    
Events      
Averages and records for this station are not official NWS values.
T = Trace of Precipitation, MM = Missing Value Source: NWS Daily Summary

Daily Weather History Graph

Daily Weather History Graph

Search for Another Location

Airport or City:

Trip Planner

Search our weather history database for the weather conditions in past years. The results will help you decide how hot, cold, wet, or windy it might be!

Date:

Astronomy

Jan. 27, 2014 Rise Set
Actual Time 7:33 AM CST 5:06 PM CST
Civil Twilight 7:01 AM CST 5:38 PM CST
Nautical Twilight 6:25 AM CST 6:14 PM CST
Astronomical Twilight 5:50 AM CST 6:49 PM CST
Moon 4:17 AM CST 1:51 PM CST
Length of Visible Light 10h 37m
Length of Day
9h 33m
Waning Crescent, 14% of the Moon is Illuminated
Jan 27
Waning Crescent
Jan 30
New
Feb 6
First Quarter
Feb 14
Full
Feb 22
Last Quarter

Hourly Weather History & Observations

Time (CST) Temp. Windchill Dew Point Humidity Pressure Visibility Wind Dir Wind Speed Gust Speed Precip Events Conditions
12:15 AM -4.9 °F -22.3 °F -14.8 °F 62% 29.94 in 10.0 mi WNW 10.4 mph - N/A   Scattered Clouds
12:35 AM -5.6 °F -24.1 °F -14.8 °F 65% 29.95 in 10.0 mi WNW 11.5 mph 18.4 mph N/A   Mostly Cloudy
12:55 AM -6.0 °F -27.7 °F -13.5 °F 70% 29.96 in 4.0 mi West 16.1 mph 21.9 mph N/A   Haze
1:15 AM -6.9 °F -28.9 °F -15.2 °F 67% 29.97 in 7.0 mi WNW 16.1 mph 23.0 mph N/A   Overcast
1:35 AM -8.0 °F -28.0 °F -17.7 °F 63% 29.99 in 10.0 mi WNW 12.7 mph - N/A   Scattered Clouds
1:55 AM -8.9 °F -28.2 °F -18.6 °F 62% 30.00 in 10.0 mi West 11.5 mph 19.6 mph N/A   Clear
2:15 AM -9.8 °F -33.9 °F -19.1 °F 63% 30.02 in 10.0 mi WNW 18.4 mph 24.2 mph N/A   Scattered Clouds
2:35 AM -10.8 °F -33.2 °F -20.6 °F 62% 30.03 in 10.0 mi West 15.0 mph 18.4 mph N/A   Clear
2:55 AM -11.7 °F -33.6 °F -20.9 °F 64% 30.04 in 10.0 mi WNW 13.8 mph 23.0 mph N/A   Clear
3:15 AM -12.1 °F -34.9 °F -21.5 °F 63% 30.06 in 10.0 mi WNW 15.0 mph 23.0 mph N/A   Clear
3:35 AM -12.6 °F -35.5 °F -22.0 °F 63% 30.06 in 10.0 mi WNW 15.0 mph 21.9 mph N/A   Scattered Clouds
3:55 AM -13.4 °F -36.5 °F -22.9 °F 62% 30.07 in 10.0 mi WNW 15.0 mph 19.6 mph N/A   Scattered Clouds
4:15 AM -14.1 °F -35.7 °F -23.8 °F 62% 30.09 in 10.0 mi WNW 12.7 mph 19.6 mph N/A   Scattered Clouds
4:35 AM -14.8 °F -35.6 °F -24.7 °F 61% 30.10 in 10.0 mi West 11.5 mph - N/A   Scattered Clouds
4:55 AM -15.2 °F -37.1 °F -25.2 °F 60% 30.12 in 7.0 mi West 12.7 mph 26.5 mph N/A   Clear
5:15 AM -15.7 °F -37.7 °F -25.6 °F 61% 30.13 in 10.0 mi West 12.7 mph - N/A   Scattered Clouds
5:35 AM -16.2 °F -36.4 °F -26.3 °F 60% 30.13 in 10.0 mi West 10.4 mph 19.6 mph N/A   Scattered Clouds
5:55 AM -16.8 °F -35.9 °F -26.7 °F 61% 30.15 in 10.0 mi West 9.2 mph - N/A   Clear
6:15 AM -17.3 °F -35.3 °F -27.4 °F 60% 30.16 in 10.0 mi West 8.1 mph - N/A   Clear
6:35 AM -17.5 °F -38.0 °F -27.4 °F 61% 30.17 in 10.0 mi West 10.4 mph - N/A   Clear
6:55 AM -18.2 °F -39.9 °F -27.6 °F 62% 30.18 in 10.0 mi West 11.5 mph - N/A   Clear
7:15 AM -18.4 °F -37.9 °F -27.8 °F 62% 30.18 in 10.0 mi WNW 9.2 mph - N/A   Clear
7:35 AM -18.6 °F -39.3 °F -28.1 °F 62% 30.19 in 10.0 mi West 10.4 mph 16.1 mph N/A   Clear
7:55 AM -18.8 °F -35.5 °F -28.1 °F 62% 30.20 in 10.0 mi West 6.9 mph - N/A   Clear
8:15 AM -18.9 °F -37.2 °F -28.3 °F 62% 30.21 in 10.0 mi West 8.1 mph - N/A   Clear
8:35 AM -18.4 °F -33.4 °F -27.8 °F 62% 30.22 in 10.0 mi West 5.8 mph - N/A   Clear
8:55 AM -17.9 °F -35.9 °F -27.6 °F 61% 30.23 in 10.0 mi WNW 8.1 mph - N/A   Clear
9:15 AM -17.1 °F -38.6 °F -27.4 °F 60% 30.25 in 10.0 mi WNW 11.5 mph - N/A   Clear
9:35 AM -16.6 °F -37.9 °F -27.4 °F 58% 30.25 in 10.0 mi WNW 11.5 mph - N/A   Clear
9:55 AM -15.9 °F -38.0 °F -27.4 °F 56% 30.25 in 10.0 mi WNW 12.7 mph 16.1 mph N/A   Clear
10:15 AM -15.3 °F -35.3 °F -26.9 °F 56% 30.26 in 10.0 mi WNW 10.4 mph - N/A   Clear
10:35 AM -14.8 °F -33.5 °F -26.7 °F 55% 30.27 in 10.0 mi West 9.2 mph - N/A   Clear
10:55 AM -13.9 °F -34.5 °F -26.3 °F 54% 30.28 in 10.0 mi WNW 11.5 mph - N/A   Clear
11:15 AM -13.2 °F -32.6 °F -25.4 °F 54% 30.28 in 7.0 mi West 10.4 mph 17.3 mph N/A   Clear
11:35 AM -12.5 °F -33.6 °F -25.2 °F 53% 30.28 in 10.0 mi West 12.7 mph - N/A   Clear
11:55 AM -11.7 °F -31.8 °F -24.5 °F 53% 30.28 in 10.0 mi West 11.5 mph - N/A   Clear
12:15 PM -11.2 °F -32.1 °F -24.2 °F 53% 30.28 in 10.0 mi West 12.7 mph 20.7 mph N/A   Clear
12:35 PM -10.5 °F -26.9 °F -23.3 °F 53% 30.28 in 10.0 mi West 8.1 mph 18.4 mph N/A   Clear
12:55 PM -10.3 °F -30.9 °F -23.8 °F 51% 30.28 in 10.0 mi West 12.7 mph - N/A   Clear
1:15 PM -9.9 °F -28.6 °F -23.4 °F 52% 30.28 in 10.0 mi West 10.4 mph 17.3 mph N/A   Clear
1:35 PM -9.4 °F -27.9 °F -22.9 °F 52% 30.28 in 10.0 mi West 10.4 mph - N/A   Clear
1:55 PM -9.4 °F -28.9 °F -22.9 °F 52% 30.28 in 10.0 mi West 11.5 mph 16.1 mph N/A   Clear
2:15 PM -8.7 °F -28.0 °F -22.2 °F 52% 30.28 in 10.0 mi West 11.5 mph - N/A   Clear
2:35 PM -8.5 °F -27.8 °F -22.0 °F 52% 30.28 in 10.0 mi West 11.5 mph 16.1 mph N/A   Clear
2:55 PM -8.0 °F -27.1 °F -21.6 °F 51% 30.29 in 10.0 mi West 11.5 mph - N/A   Clear
3:15 PM -7.8 °F -26.8 °F -21.5 °F 51% 30.29 in 10.0 mi West 11.5 mph - N/A   Clear
3:35 PM -8.0 °F -27.1 °F -21.8 °F 51% 30.29 in 10.0 mi West 11.5 mph - N/A   Clear
3:55 PM -8.1 °F -25.3 °F -22.0 °F 51% 30.30 in 10.0 mi West 9.2 mph 16.1 mph N/A   Clear
4:15 PM -8.7 °F -25.9 °F -22.4 °F 51% 30.30 in 10.0 mi West 9.2 mph - N/A   Clear
4:35 PM -9.0 °F -27.4 °F -22.7 °F 51% 30.30 in 10.0 mi WSW 10.4 mph - N/A   Clear
4:55 PM -9.9 °F -27.5 °F -22.9 °F 53% 30.30 in 10.0 mi WSW 9.2 mph - N/A   Clear
5:15 PM -11.2 °F -26.4 °F -23.6 °F 54% 30.30 in 10.0 mi West 6.9 mph - N/A   Clear
5:35 PM -12.5 °F -28.0 °F -24.0 °F 57% 30.30 in 10.0 mi West 6.9 mph - N/A   Clear
5:55 PM -12.5 °F -28.0 °F -23.8 °F 57% 30.30 in 10.0 mi West 6.9 mph - N/A   Clear
6:15 PM -13.0 °F -30.0 °F -24.0 °F 58% 30.31 in 10.0 mi West 8.1 mph - N/A   Clear
6:35 PM -13.4 °F -30.4 °F -24.0 °F 59% 30.31 in 10.0 mi WSW 8.1 mph - N/A   Clear
6:55 PM -12.8 °F -31.0 °F -23.4 °F 59% 30.31 in 10.0 mi West 9.2 mph - N/A   Clear
7:15 PM -12.3 °F -30.4 °F -22.9 °F 59% 30.31 in 10.0 mi West 9.2 mph - N/A   Clear
7:35 PM -12.3 °F -31.5 °F -22.9 °F 59% 30.31 in 10.0 mi West 10.4 mph - N/A   Clear
7:55 PM -12.3 °F -31.5 °F -22.9 °F 59% 30.31 in 10.0 mi West 10.4 mph - N/A   Clear
8:15 PM -12.5 °F -30.6 °F -22.9 °F 60% 30.31 in 10.0 mi West 9.2 mph - N/A   Clear
8:35 PM -13.0 °F -31.3 °F -22.9 °F 61% 30.31 in 10.0 mi West 9.2 mph - N/A   Clear
8:55 PM -13.4 °F -31.7 °F -23.3 °F 61% 30.31 in 10.0 mi West 9.2 mph - N/A   Clear
9:15 PM -14.1 °F -31.3 °F -23.8 °F 62% 30.31 in 10.0 mi West 8.1 mph - N/A   Clear
9:35 PM -15.0 °F -32.4 °F -24.2 °F 63% 30.32 in 10.0 mi WSW 8.1 mph - N/A   Clear
9:55 PM -15.0 °F -32.4 °F -24.0 °F 64% 30.32 in 10.0 mi West 8.1 mph - N/A   Clear
10:15 PM -15.0 °F -33.7 °F -24.0 °F 64% 30.31 in 10.0 mi West 9.2 mph - N/A   Clear
10:35 PM -15.3 °F -32.9 °F -24.0 °F 65% 30.30 in 10.0 mi West 8.1 mph - N/A   Clear
10:55 PM -15.3 °F -34.1 °F -24.2 °F 64% 30.30 in 10.0 mi West 9.2 mph - N/A   Clear
11:15 PM -15.7 °F -34.6 °F -24.3 °F 65% 30.31 in 10.0 mi West 9.2 mph - N/A   Clear
11:35 PM -16.4 °F -34.2 °F -24.9 °F 66% 30.31 in 10.0 mi West 8.1 mph - N/A   Clear
11:55 PM -16.6 °F -34.4 °F -24.9 °F 66% 30.30 in 10.0 mi West 8.1 mph - N/A   Clear